Hlavní strana
METAR-TAF:

METAR-TAF

Letiště :

Džíbútí, Džibutsko

zeměpisná šířka: 11-33N, zeměpisná délka: 043-10E, výška: 49 m

Aktuální stav počasí

Zpráva byla vytvořena před 3 hodinami a 30 minutami, v 13:00 UTC
Severozápadní vítr 8 kt
Teplota 42°C
Vlhkost vzduchu 22%
Tlak 1002 hPa
Viditelnost: 7000 m
Jasno
zákal

METAR: HDAM 181300Z 31008KT 7000 HZ SKC 42/16 Q1002

Čas: 19:30 (16:30 UTC)

Předpověď počasí

Zpráva byla vytvořena před 5 hodinami a 30 minutami, v 11:00 UTC
Předpověď platná od 18 v 12 UTC do 19 v 12 UTC
Západní vítr 10 kt s nárazy do 15 kt
Viditelnost: 6000 m
Skoro jasno ve výšce 2300 ft
Změna
od 18 v 15 UTC do 18 v 18 UTC
vítr z různých směrů 3 kt
Viditelnost: 8000 m
zákal
Změna
od 19 v 00 UTC do 19 v 06 UTC
Západní vítr 10 kt
Viditelnost: 8000 m
zákal

TAF: HDAM 181100Z 1812/1912 27010G15KT 6000 HZ/SA FEW023 BECMG 1815/1818 VRB03KT 8000 HZ NSC BECMG 1900/1906 26010KT 8000 HZ NSC

Stav a předpovědi počasí z více než 4 000 letišť (zprávy METAR a TAF).

Červené a žluté tečky na mapě představují dostupné meteorologické stanice.

Když kurzor umístíte na tečku, zobrazí se název stanice.

Pak kliknutím zobrazíte stav a předpověď počasí.

Chcete-li změnit mapu, kliknutím na zelené tlačítko se znaménkem +mapu přiblížíte, kliknutím na zelené tlačítko se znaménkem – mapu oddálíte a kliknutím na zelené šipky přejdete na sousední mapy.


METAR-TAF: